American Freedom — KAFK — position and weather

sailwx.info

Track history (hours):
 
Tides and Currents Weather Stations Pressure Air Temp Water Temp Dewpoint Dewpoint Depression Visibility Wind Speed Wind Dir Waves Ship Positions

American Freedom

Owner: Crowley Petroleum Services, Jacksonville, FL. More information available from US FCC via Universal Licensing System and Coast Guard Vessel Documentation Center.

Last reported at 2018-Jul-17 20:00 UTC. Time now 2018-Jul-22 00:54 UTC.
Position N 59°18' W 149°30'.

Length 183 m; draft 8.6 m.

Type: Tanker. MMSI: 369042000.

Wind from 210 at 6 knots

Barometer 1021.0 mb
Air temperature 16.5 ° C
Visibility: greater than 5.4 NM
Water temperature 11.5 ° C

Date/timePositionNaut miles runAvg speedWind from/ knotsBaromVisibWave heightAir tempDewpointWater temp
2018-Jul-17 20:00N 59°18' W 149°30'166 3.5 210 / 61021.0 5.4 16.5 11.5
2018-Jul-15 20:00N 59°12' W 144°06'31714.4 180 / 161010.527.0 13.0 12.4
2018-Jul-14 22:00N 54°42' W 139°00'37014.2 320 / 211026.027.0 13.0 12.5
2018-Jul-13 20:00N 49°24' W 133°54'15113.2 320 / 161030.010.8 15.0 13.7
2018-Jul-13 08:37N 47°14' W 131°60'313.6
2018-Jul-13 08:26N 47°12' W 131°58'613.5
2018-Jul-13 08:00N 47°07' W 131°53'713.6
2018-Jul-13 07:28N 47°01' W 131°47'713.8
2018-Jul-13 06:59N 46°55' W 131°42'15512.9
2018-Jul-12 19:00N 44°42' W 129°48'12913.2 360 / 301026.110.8 15.5 14.9
2018-Jul-12 09:13N 42°51' W 128°17'0 1.1
2018-Jul-12 08:52N 42°51' W 128°17'1811.7
2018-Jul-12 07:19N 42°35' W 128°04'411.9
2018-Jul-12 06:59N 42°32' W 128°02'14012.7
2018-Jul-11 20:00N 40°30' W 126°30'14810.6 360 / 381019.010.8 17.0 15.3
2018-Jul-11 06:06N 38°25' W 124°48'213.4
2018-Jul-11 05:58N 38°23' W 124°47'1413.7
2018-Jul-11 04:55N 38°11' W 124°38'813.9
2018-Jul-11 04:22N 38°05' W 124°33'513.6
2018-Jul-11 04:00N 38°00' W 124°29'713.5
2018-Jul-11 03:30N 37°55' W 124°25'713.5
2018-Jul-11 03:00N 37°49' W 124°20'713.5
2018-Jul-11 02:29N 37°43' W 124°16'613.7
2018-Jul-11 02:00N 37°37' W 124°12'713.6
2018-Jul-11 01:30N 37°31' W 124°07'713.6
2018-Jul-11 01:00N 37°25' W 124°03'713.5
2018-Jul-11 00:29N 37°19' W 123°58'713.5
2018-Jul-10 23:59N 37°13' W 123°54'613.3
2018-Jul-10 23:30N 37°08' W 123°50'713.2
2018-Jul-10 23:00N 37°02' W 123°46'713.2
2018-Jul-10 22:30N 36°57' W 123°41'613.0
2018-Jul-10 22:00N 36°51' W 123°37'713.2
2018-Jul-10 21:30N 36°46' W 123°33'712.9
2018-Jul-10 20:59N 36°40' W 123°29'713.0
2018-Jul-10 20:26N 36°34' W 123°24'1212.6
2018-Jul-10 19:28N 36°23' W 123°17'613.3
2018-Jul-10 19:00N 36°18' W 123°12'216.4 340 / 271020.3 5.4 17.0
2018-Jul-10 18:52N 36°16' W 123°13'512.9
2018-Jul-10 18:30N 36°12' W 123°10'613.0
2018-Jul-10 18:01N 36°06' W 123°06'713.1
2018-Jul-10 17:30N 36°01' W 123°02'713.2
2018-Jul-10 17:00N 35°55' W 122°58'713.3
2018-Jul-10 16:30N 35°49' W 122°54'713.3
2018-Jul-10 16:00N 35°44' W 122°49'713.6
2018-Jul-10 15:31N 35°38' W 122°45'713.4
2018-Jul-10 15:00N 35°32' W 122°41'713.3
2018-Jul-10 14:30N 35°26' W 122°37'713.0
2018-Jul-10 14:00N 35°21' W 122°32'713.1
2018-Jul-10 13:31N 35°15' W 122°28'713.1
2018-Jul-10 13:00N 35°10' W 122°24'713.3
2018-Jul-10 12:31N 35°04' W 122°20'713.4
2018-Jul-10 12:00N 34°58' W 122°15'713.4
2018-Jul-10 11:30N 34°53' W 122°11'713.5
2018-Jul-10 11:01N 34°47' W 122°07'713.1
2018-Jul-10 10:31N 34°41' W 122°03'612.6
2018-Jul-10 10:00N 34°36' W 121°59'612.6
2018-Jul-10 09:30N 34°30' W 121°55'712.9
2018-Jul-10 08:58N 34°24' W 121°51'612.4
2018-Jul-10 08:30N 34°19' W 121°47'612.4
2018-Jul-10 08:00N 34°14' W 121°43'612.8
2018-Jul-10 07:31N 34°09' W 121°39'713.0
2018-Jul-10 07:00N 34°03' W 121°35'713.2
2018-Jul-10 06:30N 33°57' W 121°31'713.1
2018-Jul-10 06:00N 33°52' W 121°27'613.0
2018-Jul-10 05:30N 33°46' W 121°23'713.1
2018-Jul-10 05:00N 33°41' W 121°19'611.8
2018-Jul-10 04:30N 33°38' W 121°12'714.0
2018-Jul-10 04:00N 33°38' W 121°04'714.1
2018-Jul-10 03:30N 33°38' W 120°56'714.1
2018-Jul-10 03:01N 33°38' W 120°47'714.1
2018-Jul-10 02:31N 33°38' W 120°39'714.2
2018-Jul-10 02:01N 33°39' W 120°30'714.5
2018-Jul-10 01:31N 33°39' W 120°21'714.8
2018-Jul-10 01:01N 33°38' W 120°13'714.1
2018-Jul-10 00:30N 33°38' W 120°04'714.0
2018-Jul-10 00:00N 33°38' W 119°56'714.6
2018-Jul-09 23:30N 33°38' W 119°47'714.5
2018-Jul-09 23:00N 33°38' W 119°38'714.7
2018-Jul-09 22:30N 33°38' W 119°29'814.8
2018-Jul-09 21:59N 33°38' W 119°20'714.9
2018-Jul-09 21:30N 33°38' W 119°12'713.2
2018-Jul-09 21:00N 33°38' W 119°04'611.8
2018-Jul-09 20:30N 33°38' W 118°57'611.8
2018-Jul-09 20:00N 33°38' W 118°50'611.8
2018-Jul-09 19:30N 33°38' W 118°42'611.6
2018-Jul-09 19:00N 33°38' W 118°35'611.8
2018-Jul-09 18:31N 33°38' W 118°28'611.4
2018-Jul-09 18:00N 33°38' W 118°22'611.9
2018-Jul-09 17:30N 33°38' W 118°14'510.0
2018-Jul-09 17:00N 33°43' W 118°11'3 6.6
2018-Jul-09 16:30N 33°46' W 118°13'1 2.2
2018-Jul-09 16:00N 33°47' W 118°13'0 0.0
2018-Jul-09 15:30N 33°47' W 118°13'0 0.0
2018-Jul-09 15:00N 33°47' W 118°13'0 0.0
2018-Jul-09 14:30N 33°47' W 118°13'0 0.0
2018-Jul-09 14:00N 33°47' W 118°13'0 0.0
2018-Jul-09 13:30N 33°47' W 118°13'0 0.0
2018-Jul-09 12:57N 33°47' W 118°13'0 0.0
2018-Jul-09 12:30N 33°47' W 118°13'0 0.0
2018-Jul-09 12:00N 33°47' W 118°13'0 0.0
2018-Jul-09 11:31N 33°47' W 118°13'0 0.0
2018-Jul-09 11:00N 33°47' W 118°13'0 0.0
2018-Jul-09 10:30N 33°47' W 118°13'0 0.0
2018-Jul-09 09:57N 33°47' W 118°13'0 0.0
2018-Jul-09 09:30N 33°47' W 118°13'0 0.0
2018-Jul-09 09:00N 33°47' W 118°13'0 0.0
2018-Jul-09 08:30N 33°47' W 118°13'0 0.0
2018-Jul-09 08:00N 33°47' W 118°13'0 0.0
2018-Jul-09 07:27N 33°47' W 118°13'0 0.0
2018-Jul-09 07:00N 33°47' W 118°13'0 0.0
2018-Jul-09 06:30N 33°47' W 118°13'0 0.0
2018-Jul-09 05:51N 33°47' W 118°13'0 0.0
2018-Jul-09 05:24N 33°47' W 118°13'0 0.0
2018-Jul-09 04:54N 33°47' W 118°13'0 0.0
2018-Jul-09 04:30N 33°47' W 118°13'0 0.0
2018-Jul-09 04:00N 33°47' W 118°13'0 0.0
2018-Jul-09 03:30N 33°47' W 118°13'0 0.0
2018-Jul-09 03:00N 33°47' W 118°13'0 0.0
2018-Jul-09 02:30N 33°47' W 118°13'0 0.0
2018-Jul-09 02:00N 33°47' W 118°13'0 0.0
2018-Jul-09 01:30N 33°47' W 118°13'0 0.0
2018-Jul-09 01:00N 33°47' W 118°13'0 0.0
2018-Jul-09 00:27N 33°47' W 118°13'0 0.0
2018-Jul-09 00:00N 33°47' W 118°13'0 0.0
2018-Jul-08 23:30N 33°47' W 118°13'0 0.0
2018-Jul-08 23:00N 33°47' W 118°13'0 0.0
2018-Jul-08 22:30N 33°47' W 118°13'0 0.0
2018-Jul-08 22:00N 33°47' W 118°13'0 0.0
2018-Jul-08 21:30N 33°47' W 118°13'0 0.0
2018-Jul-08 21:00N 33°47' W 118°13'0 0.0
2018-Jul-08 20:30N 33°47' W 118°13'0 0.0
2018-Jul-08 20:00N 33°47' W 118°13'0 0.0
2018-Jul-08 19:30N 33°47' W 118°13'0 0.0
2018-Jul-08 19:00N 33°47' W 118°13'0 0.0
2018-Jul-08 18:30N 33°47' W 118°13'0 0.0
2018-Jul-08 18:00N 33°47' W 118°13'0 0.0
2018-Jul-08 17:30N 33°47' W 118°13'0 0.0
2018-Jul-08 17:00N 33°47' W 118°13'0 0.0
2018-Jul-08 16:30N 33°47' W 118°13'0 0.0
2018-Jul-08 16:00N 33°47' W 118°13'0 0.0
2018-Jul-08 15:30N 33°47' W 118°13'0 0.0
2018-Jul-08 15:00N 33°47' W 118°13'0 0.0
2018-Jul-08 14:30N 33°47' W 118°13'0 0.0
2018-Jul-08 13:57N 33°47' W 118°13'0 0.0
2018-Jul-08 13:30N 33°47' W 118°13'0 0.0
2018-Jul-08 13:00N 33°47' W 118°13'0 0.0
2018-Jul-08 12:30N 33°47' W 118°13'0 0.0
2018-Jul-08 12:00N 33°47' W 118°13'0 0.0
2018-Jul-08 11:27N 33°47' W 118°13'0 0.0
2018-Jul-08 11:00N 33°47' W 118°13'0 0.0
2018-Jul-08 10:30N 33°47' W 118°13'0 0.0
2018-Jul-08 09:54N 33°47' W 118°13'0 0.0
2018-Jul-08 09:30N 33°47' W 118°13'0 0.0
2018-Jul-08 09:00N 33°47' W 118°13'0 0.0
2018-Jul-08 08:30N 33°47' W 118°13'0 0.0
2018-Jul-08 08:00N 33°47' W 118°13'0 0.0
2018-Jul-08 07:27N 33°47' W 118°13'0 0.0
2018-Jul-08 07:00N 33°47' W 118°13'0 0.0
2018-Jul-08 06:30N 33°47' W 118°13'0 0.0
2018-Jul-08 06:00N 33°47' W 118°13'0 0.0
2018-Jul-08 05:30N 33°47' W 118°13'0 0.0
2018-Jul-08 05:00N 33°47' W 118°13'0 0.0
2018-Jul-08 04:30N 33°47' W 118°13'0 0.0
2018-Jul-08 04:00N 33°47' W 118°13'0 0.0
2018-Jul-08 03:30N 33°47' W 118°13'0 0.0
2018-Jul-08 03:00N 33°47' W 118°13'0 0.0
2018-Jul-08 02:30N 33°47' W 118°13'0 0.0
2018-Jul-08 02:00N 33°47' W 118°13'0 0.0
2018-Jul-08 01:30N 33°47' W 118°13'0 0.0
2018-Jul-08 01:00N 33°47' W 118°13'0 0.0
2018-Jul-08 00:30N 33°47' W 118°13'0 0.0
2018-Jul-08 00:00N 33°47' W 118°13'0 0.0
2018-Jul-07 23:30N 33°47' W 118°13'0 0.0
2018-Jul-07 22:54N 33°47' W 118°13'0 0.0
2018-Jul-07 22:30N 33°47' W 118°13'0 0.0
2018-Jul-07 22:00N 33°47' W 118°13'0 0.0
2018-Jul-07 21:30N 33°47' W 118°13'0 0.0
2018-Jul-07 21:00N 33°47' W 118°13'0 0.0
2018-Jul-07 20:30N 33°47' W 118°13'  
Track history (hours):
 
Tides and Currents Weather Stations Pressure Air Temp Water Temp Dewpoint Dewpoint Depression Visibility Wind Speed Wind Dir Waves Ship Positions

American Freedom

Owner: Crowley Petroleum Services, Jacksonville, FL. More information available from US FCC via Universal Licensing System and Coast Guard Vessel Documentation Center.

Last reported at 2018-Jul-17 20:00 UTC. Time now 2018-Jul-22 00:54 UTC.
Position N 59°18' W 149°30'.

Length 183 m; draft 8.6 m.

Type: Tanker. MMSI: 369042000.

Wind from 210 at 6 knots

Barometer 1021.0 mb
Air temperature 16.5 ° C
Visibility: greater than 5.4 NM
Water temperature 11.5 ° C

Date/timePositionNaut miles runAvg speedWind from/ knotsBaromVisibWave heightAir tempDewpointWater temp
2018-Jul-17 20:00N 59°18' W 149°30'166 3.5 210 / 61021.0 5.4 16.5 11.5
2018-Jul-15 20:00N 59°12' W 144°06'31714.4 180 / 161010.527.0 13.0 12.4
2018-Jul-14 22:00N 54°42' W 139°00'37014.2 320 / 211026.027.0 13.0 12.5
2018-Jul-13 20:00N 49°24' W 133°54'15113.2 320 / 161030.010.8 15.0 13.7
2018-Jul-13 08:37N 47°14' W 131°60'313.6
2018-Jul-13 08:26N 47°12' W 131°58'613.5
2018-Jul-13 08:00N 47°07' W 131°53'713.6
2018-Jul-13 07:28N 47°01' W 131°47'713.8
2018-Jul-13 06:59N 46°55' W 131°42'15512.9
2018-Jul-12 19:00N 44°42' W 129°48'12913.2 360 / 301026.110.8 15.5 14.9
2018-Jul-12 09:13N 42°51' W 128°17'0 1.1
2018-Jul-12 08:52N 42°51' W 128°17'1811.7
2018-Jul-12 07:19N 42°35' W 128°04'411.9
2018-Jul-12 06:59N 42°32' W 128°02'14012.7
2018-Jul-11 20:00N 40°30' W 126°30'14810.6 360 / 381019.010.8 17.0 15.3
2018-Jul-11 06:06N 38°25' W 124°48'213.4
2018-Jul-11 05:58N 38°23' W 124°47'1413.7
2018-Jul-11 04:55N 38°11' W 124°38'813.9
2018-Jul-11 04:22N 38°05' W 124°33'513.6
2018-Jul-11 04:00N 38°00' W 124°29'713.5
2018-Jul-11 03:30N 37°55' W 124°25'713.5
2018-Jul-11 03:00N 37°49' W 124°20'713.5
2018-Jul-11 02:29N 37°43' W 124°16'613.7
2018-Jul-11 02:00N 37°37' W 124°12'713.6
2018-Jul-11 01:30N 37°31' W 124°07'713.6
2018-Jul-11 01:00N 37°25' W 124°03'713.5
2018-Jul-11 00:29N 37°19' W 123°58'713.5
2018-Jul-10 23:59N 37°13' W 123°54'613.3
2018-Jul-10 23:30N 37°08' W 123°50'713.2
2018-Jul-10 23:00N 37°02' W 123°46'713.2
2018-Jul-10 22:30N 36°57' W 123°41'613.0
2018-Jul-10 22:00N 36°51' W 123°37'713.2
2018-Jul-10 21:30N 36°46' W 123°33'712.9
2018-Jul-10 20:59N 36°40' W 123°29'713.0
2018-Jul-10 20:26N 36°34' W 123°24'1212.6
2018-Jul-10 19:28N 36°23' W 123°17'613.3
2018-Jul-10 19:00N 36°18' W 123°12'216.4 340 / 271020.3 5.4 17.0
2018-Jul-10 18:52N 36°16' W 123°13'512.9
2018-Jul-10 18:30N 36°12' W 123°10'613.0
2018-Jul-10 18:01N 36°06' W 123°06'713.1
2018-Jul-10 17:30N 36°01' W 123°02'713.2
2018-Jul-10 17:00N 35°55' W 122°58'713.3
2018-Jul-10 16:30N 35°49' W 122°54'713.3
2018-Jul-10 16:00N 35°44' W 122°49'713.6
2018-Jul-10 15:31N 35°38' W 122°45'713.4
2018-Jul-10 15:00N 35°32' W 122°41'713.3
2018-Jul-10 14:30N 35°26' W 122°37'713.0
2018-Jul-10 14:00N 35°21' W 122°32'713.1
2018-Jul-10 13:31N 35°15' W 122°28'713.1
2018-Jul-10 13:00N 35°10' W 122°24'713.3
2018-Jul-10 12:31N 35°04' W 122°20'713.4
2018-Jul-10 12:00N 34°58' W 122°15'713.4
2018-Jul-10 11:30N 34°53' W 122°11'713.5
2018-Jul-10 11:01N 34°47' W 122°07'713.1
2018-Jul-10 10:31N 34°41' W 122°03'612.6
2018-Jul-10 10:00N 34°36' W 121°59'612.6
2018-Jul-10 09:30N 34°30' W 121°55'712.9
2018-Jul-10 08:58N 34°24' W 121°51'612.4
2018-Jul-10 08:30N 34°19' W 121°47'612.4
2018-Jul-10 08:00N 34°14' W 121°43'612.8
2018-Jul-10 07:31N 34°09' W 121°39'713.0
2018-Jul-10 07:00N 34°03' W 121°35'713.2
2018-Jul-10 06:30N 33°57' W 121°31'713.1
2018-Jul-10 06:00N 33°52' W 121°27'613.0
2018-Jul-10 05:30N 33°46' W 121°23'713.1
2018-Jul-10 05:00N 33°41' W 121°19'611.8
2018-Jul-10 04:30N 33°38' W 121°12'714.0
2018-Jul-10 04:00N 33°38' W 121°04'714.1
2018-Jul-10 03:30N 33°38' W 120°56'714.1
2018-Jul-10 03:01N 33°38' W 120°47'714.1
2018-Jul-10 02:31N 33°38' W 120°39'714.2
2018-Jul-10 02:01N 33°39' W 120°30'714.5
2018-Jul-10 01:31N 33°39' W 120°21'714.8
2018-Jul-10 01:01N 33°38' W 120°13'714.1
2018-Jul-10 00:30N 33°38' W 120°04'714.0
2018-Jul-10 00:00N 33°38' W 119°56'714.6
2018-Jul-09 23:30N 33°38' W 119°47'714.5
2018-Jul-09 23:00N 33°38' W 119°38'714.7
2018-Jul-09 22:30N 33°38' W 119°29'814.8
2018-Jul-09 21:59N 33°38' W 119°20'714.9
2018-Jul-09 21:30N 33°38' W 119°12'713.2
2018-Jul-09 21:00N 33°38' W 119°04'611.8
2018-Jul-09 20:30N 33°38' W 118°57'611.8
2018-Jul-09 20:00N 33°38' W 118°50'611.8
2018-Jul-09 19:30N 33°38' W 118°42'611.6
2018-Jul-09 19:00N 33°38' W 118°35'611.8
2018-Jul-09 18:31N 33°38' W 118°28'611.4
2018-Jul-09 18:00N 33°38' W 118°22'611.9
2018-Jul-09 17:30N 33°38' W 118°14'510.0
2018-Jul-09 17:00N 33°43' W 118°11'3 6.6
2018-Jul-09 16:30N 33°46' W 118°13'1 2.2
2018-Jul-09 16:00N 33°47' W 118°13'0 0.0
2018-Jul-09 15:30N 33°47' W 118°13'0 0.0
2018-Jul-09 15:00N 33°47' W 118°13'0 0.0
2018-Jul-09 14:30N 33°47' W 118°13'0 0.0
2018-Jul-09 14:00N 33°47' W 118°13'0 0.0
2018-Jul-09 13:30N 33°47' W 118°13'0 0.0
2018-Jul-09 12:57N 33°47' W 118°13'0 0.0
2018-Jul-09 12:30N 33°47' W 118°13'0 0.0
2018-Jul-09 12:00N 33°47' W 118°13'0 0.0
2018-Jul-09 11:31N 33°47' W 118°13'0 0.0
2018-Jul-09 11:00N 33°47' W 118°13'0 0.0
2018-Jul-09 10:30N 33°47' W 118°13'0 0.0
2018-Jul-09 09:57N 33°47' W 118°13'0 0.0
2018-Jul-09 09:30N 33°47' W 118°13'0 0.0
2018-Jul-09 09:00N 33°47' W 118°13'0 0.0
2018-Jul-09 08:30N 33°47' W 118°13'0 0.0
2018-Jul-09 08:00N 33°47' W 118°13'0 0.0
2018-Jul-09 07:27N 33°47' W 118°13'0 0.0
2018-Jul-09 07:00N 33°47' W 118°13'0 0.0
2018-Jul-09 06:30N 33°47' W 118°13'0 0.0
2018-Jul-09 05:51N 33°47' W 118°13'0 0.0
2018-Jul-09 05:24N 33°47' W 118°13'0 0.0
2018-Jul-09 04:54N 33°47' W 118°13'0 0.0
2018-Jul-09 04:30N 33°47' W 118°13'0 0.0
2018-Jul-09 04:00N 33°47' W 118°13'0 0.0
2018-Jul-09 03:30N 33°47' W 118°13'0 0.0
2018-Jul-09 03:00N 33°47' W 118°13'0 0.0
2018-Jul-09 02:30N 33°47' W 118°13'0 0.0
2018-Jul-09 02:00N 33°47' W 118°13'0 0.0
2018-Jul-09 01:30N 33°47' W 118°13'0 0.0
2018-Jul-09 01:00N 33°47' W 118°13'0 0.0
2018-Jul-09 00:27N 33°47' W 118°13'0 0.0
2018-Jul-09 00:00N 33°47' W 118°13'0 0.0
2018-Jul-08 23:30N 33°47' W 118°13'0 0.0
2018-Jul-08 23:00N 33°47' W 118°13'0 0.0
2018-Jul-08 22:30N 33°47' W 118°13'0 0.0
2018-Jul-08 22:00N 33°47' W 118°13'0 0.0
2018-Jul-08 21:30N 33°47' W 118°13'0 0.0
2018-Jul-08 21:00N 33°47' W 118°13'0 0.0
2018-Jul-08 20:30N 33°47' W 118°13'0 0.0
2018-Jul-08 20:00N 33°47' W 118°13'0 0.0
2018-Jul-08 19:30N 33°47' W 118°13'0 0.0
2018-Jul-08 19:00N 33°47' W 118°13'0 0.0
2018-Jul-08 18:30N 33°47' W 118°13'0 0.0
2018-Jul-08 18:00N 33°47' W 118°13'0 0.0
2018-Jul-08 17:30N 33°47' W 118°13'0 0.0
2018-Jul-08 17:00N 33°47' W 118°13'0 0.0
2018-Jul-08 16:30N 33°47' W 118°13'0 0.0
2018-Jul-08 16:00N 33°47' W 118°13'0 0.0
2018-Jul-08 15:30N 33°47' W 118°13'0 0.0
2018-Jul-08 15:00N 33°47' W 118°13'0 0.0
2018-Jul-08 14:30N 33°47' W 118°13'0 0.0
2018-Jul-08 13:57N 33°47' W 118°13'0 0.0
2018-Jul-08 13:30N 33°47' W 118°13'0 0.0
2018-Jul-08 13:00N 33°47' W 118°13'0 0.0
2018-Jul-08 12:30N 33°47' W 118°13'0 0.0
2018-Jul-08 12:00N 33°47' W 118°13'0 0.0
2018-Jul-08 11:27N 33°47' W 118°13'0 0.0
2018-Jul-08 11:00N 33°47' W 118°13'0 0.0
2018-Jul-08 10:30N 33°47' W 118°13'0 0.0
2018-Jul-08 09:54N 33°47' W 118°13'0 0.0
2018-Jul-08 09:30N 33°47' W 118°13'0 0.0
2018-Jul-08 09:00N 33°47' W 118°13'0 0.0
2018-Jul-08 08:30N 33°47' W 118°13'0 0.0
2018-Jul-08 08:00N 33°47' W 118°13'0 0.0
2018-Jul-08 07:27N 33°47' W 118°13'0 0.0
2018-Jul-08 07:00N 33°47' W 118°13'0 0.0
2018-Jul-08 06:30N 33°47' W 118°13'0 0.0
2018-Jul-08 06:00N 33°47' W 118°13'0 0.0
2018-Jul-08 05:30N 33°47' W 118°13'0 0.0
2018-Jul-08 05:00N 33°47' W 118°13'0 0.0
2018-Jul-08 04:30N 33°47' W 118°13'0 0.0
2018-Jul-08 04:00N 33°47' W 118°13'0 0.0
2018-Jul-08 03:30N 33°47' W 118°13'0 0.0
2018-Jul-08 03:00N 33°47' W 118°13'0 0.0
2018-Jul-08 02:30N 33°47' W 118°13'0 0.0
2018-Jul-08 02:00N 33°47' W 118°13'0 0.0
2018-Jul-08 01:30N 33°47' W 118°13'0 0.0
2018-Jul-08 01:00N 33°47' W 118°13'0 0.0
2018-Jul-08 00:30N 33°47' W 118°13'0 0.0
2018-Jul-08 00:00N 33°47' W 118°13'0 0.0
2018-Jul-07 23:30N 33°47' W 118°13'0 0.0
2018-Jul-07 22:54N 33°47' W 118°13'0 0.0
2018-Jul-07 22:30N 33°47' W 118°13'0 0.0
2018-Jul-07 22:00N 33°47' W 118°13'0 0.0
2018-Jul-07 21:30N 33°47' W 118°13'0 0.0
2018-Jul-07 21:00N 33°47' W 118°13'0 0.0
2018-Jul-07 20:30N 33°47' W 118°13'  

Dump ship's entire track history